Airfield :
LOGIN :

Register | Disclaimer

   EN    FR    IT 

 










Legend :    VFR   Marginal VFR   IFR   Intensive IFR   Very Intensive IFR
Visi :
Ceiling :
>= 8 km
>= 3000ft
5 to 8 km
1000 to 3000 ft
1500m to 5 km
500 to 1000 ft
800 to 1500m
200 to 500 ft
< 800m
< 200 ft
Symbols :   Thunderstorms  Fog  Heavy snow  Heavy precipitations  Wind > 20 kt
SIGMETs :     Misc.  Thunderstorms  Icing  Turbulence  Mountain Waves  Volcanic Ashes







- Airport Elevation : 459 ft
- IATA code : CER
- Download approach charts


LFRC - Cherbourg / Maupertus

CURRENT METAR :
  • 190330Z AUTO 30005KT 0350 R28/0450D FG VV/// 08/07 Q1018

EXPIRED METARs :
  • 190300Z AUTO 29003KT 0650 0550 R28/0900N FG VV/// 08/07 Q1018
  • 190230Z AUTO 28003KT 1400 1200 R28/1800N -DZ BR OVC003 08/07 Q1018
  • 190200Z AUTO 24003KT 0800 0700 R28/1000N FG VV/// 07/07 Q1018
  • 190130Z AUTO 21004KT 0650 0600 R28/0900N FG VV/// 07/07 Q1018
  • 190100Z AUTO 20005KT 0900 0800 R28/1300D FG VV/// 07/07 Q1018

Expired Forecast.
No reported NOTAMs for that airfield.



MET'MAP, your aeronautical weather chart ! - Copyright ORBIFLY December 2007 - Disclaimer

ORBIFLY MET'MAP TEAM :

Programming & Development : Alexandra Zaïnal
Concept & Development : Baudouin d'Aumeries
Co-Development & Prog : Marc-Olivier Méhu
Technical & hardware support : Manuel Goepfert

Contact : metmap@orbifly.com




SOURCES & CREDITS :

   NOAA